Time;durP1;ratioP1;P1;durP2;ratioP2;P2;SDS_P1;SDS_P2;PMS_P1;PMS_P2;Temp;Humidity;BMP_temperature;BMP_pressure;BME280_temperature;BME280_humidity;BME280_pressure;Samples;Min_cycle;Max_cycle;Signal;HPM_P1;HPM_P2
2022/09/07 00:00:51;;;;;;;0.80;0.80;;;7.10;99.90;;;;;;5072992;28;20197;-64
2022/09/07 00:03:17;;;;;;;0.60;0.60;;;7.10;99.90;;;;;;5073185;28;20264;-64
2022/09/07 00:05:44;;;;;;;1.23;1.17;;;7.10;99.90;;;;;;5073085;28;20197;-64
2022/09/07 00:08:10;;;;;;;0.70;0.70;;;7.10;99.90;;;;;;5072773;28;20735;-65
2022/09/07 00:10:37;;;;;;;0.70;0.70;;;7.00;99.90;;;;;;5072868;28;20203;-64
2022/09/07 00:13:03;;;;;;;0.60;0.60;;;7.00;99.90;;;;;;5073062;28;20192;-64
2022/09/07 00:15:29;;;;;;;0.70;0.70;;;7.00;99.90;;;;;;5075950;28;20200;-64
2022/09/07 00:17:55;;;;;;;0.70;0.70;;;6.90;99.90;;;;;;5093115;28;20662;-63
2022/09/07 00:20:21;;;;;;;0.60;0.60;;;6.90;99.90;;;;;;5093027;28;20616;-64
2022/09/07 00:22:47;;;;;;;0.60;0.60;;;6.80;99.90;;;;;;5093018;28;20556;-64
2022/09/07 00:25:12;;;;;;;0.70;0.70;;;6.80;99.90;;;;;;5093151;28;20223;-64
2022/09/07 00:27:38;;;;;;;0.60;0.60;;;6.90;99.90;;;;;;5093042;28;20261;-64
2022/09/07 00:30:05;;;;;;;0.60;0.60;;;6.80;99.90;;;;;;5092666;28;20277;-64
2022/09/07 00:32:32;;;;;;;0.60;0.60;;;6.90;99.90;;;;;;5092687;28;20223;-65
2022/09/07 00:34:57;;;;;;;0.80;0.80;;;6.80;99.90;;;;;;5083677;28;20205;-64
2022/09/07 00:37:23;;;;;;;0.60;0.60;;;6.80;99.90;;;;;;5072742;28;20212;-64
2022/09/07 00:39:49;;;;;;;0.80;0.80;;;6.70;99.90;;;;;;5072720;28;20522;-65
2022/09/07 00:42:21;;;;;;;0.60;0.60;;;6.70;99.90;;;;;;5072489;28;20193;-64
2022/09/07 00:45:15;;;;;;;0.70;0.70;;;6.70;99.90;;;;;;5072978;28;20197;-64
2022/09/07 00:47:56;;;;;;;0.80;0.80;;;6.60;99.90;;;;;;5072518;28;20681;-64
2022/09/07 00:50:32;;;;;;;0.70;0.70;;;6.60;99.90;;;;;;5075792;28;20651;-64
2022/09/07 00:53:16;;;;;;;0.70;0.70;;;6.60;99.90;;;;;;5058089;28;20558;-64
2022/09/07 00:55:44;;;;;;;0.70;0.70;;;6.60;99.90;;;;;;5076102;28;20226;-64
2022/09/07 00:58:10;;;;;;;0.70;0.70;;;6.50;99.90;;;;;;5058130;28;20254;-64
2022/09/07 01:00:36;;;;;;;0.70;0.70;;;6.60;99.90;;;;;;5076139;28;20188;-64
2022/09/07 01:03:04;;;;;;;0.70;0.70;;;6.50;99.90;;;;;;5076087;28;20200;-64
2022/09/07 01:05:32;;;;;;;0.80;0.80;;;6.50;99.90;;;;;;5075777;28;20196;-64
2022/09/07 01:07:58;;;;;;;0.70;0.70;;;6.40;99.90;;;;;;5075957;28;20714;-64
2022/09/07 01:10:29;;;;;;;0.70;0.70;;;6.40;99.90;;;;;;5075692;28;20189;-64
2022/09/07 01:12:55;;;;;;;0.63;0.63;;;6.40;99.90;;;;;;5089368;28;20199;-64
2022/09/07 01:15:26;;;;;;;0.60;0.60;;;6.40;99.90;;;;;;5095755;28;20200;-65
2022/09/07 01:18:11;;;;;;;0.65;0.65;;;6.40;99.90;;;;;;5095940;28;20761;-64
2022/09/07 01:21:19;;;;;;;0.60;0.60;;;6.40;99.90;;;;;;5095987;28;20275;-64
2022/09/07 01:23:51;;;;;;;0.60;0.60;;;6.40;99.90;;;;;;5096394;28;20192;-64
2022/09/07 01:26:37;;;;;;;0.60;0.60;;;6.30;99.90;;;;;;5096441;28;20739;-64
2022/09/07 01:29:26;;;;;;;0.70;0.70;;;6.30;99.90;;;;;;5074326;28;20228;-65
2022/09/07 01:32:16;;;;;;;0.70;0.70;;;6.30;99.90;;;;;;5075580;28;20288;-65
2022/09/07 01:34:45;;;;;;;0.63;0.63;;;6.30;99.90;;;;;;5075402;28;20197;-65
2022/09/07 01:37:33;;;;;;;0.70;0.70;;;6.20;99.90;;;;;;5057480;28;20205;-65
2022/09/07 01:40:29;;;;;;;0.80;0.80;;;6.20;99.90;;;;;;5075359;28;20203;-65
2022/09/07 01:43:11;;;;;;;0.70;0.70;;;6.20;99.90;;;;;;5075192;28;20386;-64
2022/09/07 01:45:41;;;;;;;0.70;0.70;;;6.10;99.90;;;;;;5075333;28;20193;-64
2022/09/07 01:48:12;;;;;;;0.70;0.70;;;6.10;99.90;;;;;;5075571;28;20694;-65
2022/09/07 01:50:43;;;;;;;0.70;0.70;;;6.10;99.90;;;;;;5058281;28;20297;-64
2022/09/07 01:53:28;;;;;;;0.70;0.70;;;6.10;99.90;;;;;;5055356;28;20255;-65
2022/09/07 01:56:09;;;;;;;0.70;0.70;;;6.00;99.90;;;;;;5055168;28;20206;-64
2022/09/07 01:58:35;;;;;;;0.70;0.70;;;6.00;99.90;;;;;;5054918;28;20564;-64
2022/09/07 02:01:19;;;;;;;0.70;0.70;;;6.00;99.90;;;;;;5060253;28;20193;-64
2022/09/07 02:04:18;;;;;;;0.70;0.70;;;6.00;99.90;;;;;;5056833;28;20562;-64
2022/09/07 02:06:49;;;;;;;0.70;0.70;;;6.00;99.90;;;;;;5063271;28;20736;-65
2022/09/07 02:09:29;;;;;;;0.70;0.70;;;5.90;99.90;;;;;;5060448;28;20676;-64
2022/09/07 02:11:56;;;;;;;0.68;0.68;;;5.90;99.90;;;;;;5054635;28;20205;-64
2022/09/07 02:14:32;;;;;;;0.70;0.70;;;5.90;99.90;;;;;;5054348;28;20255;-65
2022/09/07 02:17:07;;;;;;;0.75;0.75;;;5.90;99.90;;;;;;5054493;28;20617;-64
2022/09/07 02:20:06;;;;;;;0.70;0.70;;;5.90;99.90;;;;;;5054294;28;20228;-64
2022/09/07 02:22:35;;;;;;;0.52;0.52;;;5.90;99.90;;;;;;5025741;28;20210;-64
2022/09/07 02:25:03;;;;;;;0.70;0.70;;;5.90;99.90;;;;;;5054455;28;20189;-64
2022/09/07 02:27:44;;;;;;;0.70;0.70;;;6.00;99.90;;;;;;5054085;28;20201;-65
2022/09/07 02:30:11;;;;;;;0.70;0.70;;;5.90;99.90;;;;;;5052646;28;20229;-65
2022/09/07 02:32:36;;;;;;;0.80;0.80;;;5.90;99.90;;;;;;5054270;28;20652;-64
2022/09/07 02:35:03;;;;;;;0.60;0.60;;;5.80;99.90;;;;;;5054052;28;20204;-64
2022/09/07 02:37:29;;;;;;;0.70;0.70;;;5.80;99.90;;;;;;5066758;28;20233;-64
2022/09/07 02:39:56;;;;;;;0.70;0.70;;;5.80;99.90;;;;;;5074034;28;20216;-64
2022/09/07 02:42:22;;;;;;;0.80;0.80;;;5.70;99.90;;;;;;5073536;28;20194;-64
2022/09/07 02:44:48;;;;;;;0.70;0.70;;;5.70;99.90;;;;;;5073965;28;20204;-64
2022/09/07 02:47:25;;;;;;;0.70;0.70;;;5.70;99.90;;;;;;5073705;28;20560;-65
2022/09/07 02:50:27;;;;;;;0.70;0.70;;;5.60;99.90;;;;;;5073824;28;20193;-64
2022/09/07 02:53:08;;;;;;;0.63;0.63;;;5.60;99.90;;;;;;5073806;28;20193;-64
2022/09/07 02:56:05;;;;;;;1.25;1.15;;;5.60;99.90;;;;;;5073490;28;20262;-65
2022/09/07 02:58:51;;;;;;;0.70;0.70;;;5.60;99.90;;;;;;5073380;28;20192;-64
2022/09/07 03:01:39;;;;;;;0.70;0.70;;;5.60;99.90;;;;;;5044856;28;20197;-65
2022/09/07 03:04:30;;;;;;;0.70;0.70;;;5.50;99.90;;;;;;5055874;28;20205;-64
2022/09/07 03:07:08;;;;;;;0.70;0.70;;;5.50;99.90;;;;;;5072257;28;20670;-64
2022/09/07 03:09:40;;;;;;;0.70;0.70;;;5.50;99.90;;;;;;5073682;28;20204;-64
2022/09/07 03:12:06;;;;;;;0.70;0.70;;;5.40;99.90;;;;;;5073065;28;20216;-64
2022/09/07 03:14:33;;;;;;;0.70;0.70;;;5.40;99.90;;;;;;5073269;28;20640;-64
2022/09/07 03:17:00;;;;;;;0.70;0.70;;;5.40;99.90;;;;;;5073245;28;20566;-64
2022/09/07 03:19:26;;;;;;;0.80;0.80;;;5.40;99.90;;;;;;5073109;28;20199;-64
2022/09/07 03:21:52;;;;;;;0.80;0.80;;;5.50;99.90;;;;;;5071858;28;20285;-64
2022/09/07 03:24:18;;;;;;;0.90;0.90;;;5.60;99.90;;;;;;5073239;28;20244;-64
2022/09/07 03:26:47;;;;;;;0.70;0.70;;;5.70;99.90;;;;;;5073051;28;20695;-64
2022/09/07 03:29:14;;;;;;;0.60;0.60;;;5.80;99.90;;;;;;5082479;28;20243;-64
2022/09/07 03:31:40;;;;;;;0.80;0.80;;;5.90;99.90;;;;;;5093185;28;20231;-64
2022/09/07 03:34:06;;;;;;;0.70;0.70;;;6.00;99.90;;;;;;5076877;28;20235;-64
2022/09/07 03:36:32;;;;;;;0.70;0.70;;;6.00;99.90;;;;;;5054785;28;20209;-64
2022/09/07 03:38:58;;;;;;;0.70;0.70;;;6.10;99.90;;;;;;5072991;28;20203;-64
2022/09/07 03:41:25;;;;;;;0.85;0.85;;;6.20;99.90;;;;;;5054367;28;20652;-64
2022/09/07 03:43:51;;;;;;;0.80;0.80;;;6.20;99.90;;;;;;5072973;28;20188;-64
2022/09/07 03:46:18;;;;;;;0.65;0.65;;;6.20;99.90;;;;;;5072920;28;20732;-64
2022/09/07 03:48:45;;;;;;;0.60;0.60;;;6.30;99.90;;;;;;5072826;28;20290;-64
2022/09/07 03:51:11;;;;;;;0.80;0.80;;;6.30;99.90;;;;;;5072852;28;20689;-64
2022/09/07 03:53:39;;;;;;;0.60;0.60;;;6.30;99.90;;;;;;5072629;28;20225;-64
2022/09/07 03:56:20;;;;;;;0.70;0.70;;;6.30;99.90;;;;;;5072690;28;20629;-64
2022/09/07 03:58:46;;;;;;;0.65;0.65;;;6.30;99.90;;;;;;5072814;28;20276;-64
2022/09/07 04:01:18;;;;;;;0.70;0.70;;;6.30;99.90;;;;;;5082087;28;20196;-65
2022/09/07 04:03:45;;;;;;;0.60;0.60;;;6.20;99.90;;;;;;5092903;28;20283;-65
2022/09/07 04:06:11;;;;;;;0.70;0.70;;;6.20;99.90;;;;;;5092907;28;20192;-65
2022/09/07 04:08:39;;;;;;;0.70;0.70;;;6.10;99.90;;;;;;5092657;28;20188;-65
2022/09/07 04:11:06;;;;;;;0.80;0.80;;;6.10;99.90;;;;;;5092827;28;20188;-64
2022/09/07 04:13:34;;;;;;;0.75;0.75;;;6.00;99.90;;;;;;5092680;28;20188;-64
2022/09/07 04:15:59;;;;;;;0.70;0.70;;;6.00;99.90;;;;;;5092660;28;20212;-65
2022/09/07 04:18:25;;;;;;;0.77;0.77;;;5.90;99.90;;;;;;5092613;28;20199;-65
2022/09/07 04:20:51;;;;;;;0.70;0.70;;;5.90;99.90;;;;;;5092755;28;20195;-64
2022/09/07 04:23:18;;;;;;;0.70;0.70;;;5.80;99.90;;;;;;5092730;28;20231;-64
2022/09/07 04:25:51;;;;;;;0.70;0.70;;;5.80;99.90;;;;;;5096966;28;20199;-65
2022/09/07 04:28:19;;;;;;;0.80;0.80;;;5.80;99.90;;;;;;5096612;28;20226;-64
2022/09/07 04:30:45;;;;;;;0.73;0.73;;;5.80;99.90;;;;;;5077240;28;20208;-65
2022/09/07 04:33:11;;;;;;;0.80;0.80;;;5.70;99.90;;;;;;5076464;28;20197;-65
2022/09/07 04:35:39;;;;;;;0.70;0.70;;;5.70;99.90;;;;;;5076047;28;20196;-65
2022/09/07 04:38:06;;;;;;;0.63;0.63;;;5.70;99.90;;;;;;5058185;28;20232;-65
2022/09/07 04:40:32;;;;;;;0.70;0.70;;;5.70;99.90;;;;;;5076164;28;20276;-65
2022/09/07 04:42:58;;;;;;;0.70;0.70;;;5.60;99.90;;;;;;5054815;28;20703;-65
2022/09/07 04:45:24;;;;;;;0.70;0.70;;;5.60;99.90;;;;;;5055941;28;20334;-65
2022/09/07 04:47:50;;;;;;;0.70;0.70;;;5.60;99.90;;;;;;5054914;28;20213;-65
2022/09/07 04:50:17;;;;;;;0.70;0.70;;;5.70;99.90;;;;;;5066426;28;20209;-65
2022/09/07 04:52:43;;;;;;;0.70;0.70;;;5.70;99.90;;;;;;5075971;28;20275;-65
2022/09/07 04:55:10;;;;;;;1.23;1.05;;;5.70;99.90;;;;;;5075929;28;20189;-65
2022/09/07 04:57:36;;;;;;;0.90;0.90;;;5.80;99.90;;;;;;5086467;28;20196;-75
2022/09/07 05:00:07;;;;;;;0.70;0.70;;;5.80;99.90;;;;;;5096234;28;20216;-65
2022/09/07 05:02:33;;;;;;;0.70;0.70;;;5.90;99.90;;;;;;5095988;28;20249;-65
2022/09/07 05:04:59;;;;;;;0.70;0.70;;;6.00;99.90;;;;;;5096109;28;20189;-65
2022/09/07 05:07:24;;;;;;;0.73;0.73;;;6.00;99.90;;;;;;5095779;28;20192;-65
2022/09/07 05:09:50;;;;;;;0.70;0.70;;;6.10;99.90;;;;;;5096056;28;20196;-66
2022/09/07 05:12:16;;;;;;;0.70;0.70;;;6.20;99.90;;;;;;5095977;28;20192;-65
2022/09/07 05:14:42;;;;;;;0.60;0.60;;;6.30;99.90;;;;;;5095848;28;20192;-65
2022/09/07 05:17:07;;;;;;;0.70;0.70;;;6.40;99.90;;;;;;5095740;28;20204;-66
2022/09/07 05:19:33;;;;;;;0.80;0.80;;;6.40;99.90;;;;;;5095727;28;20195;-65
2022/09/07 05:21:59;;;;;;;0.70;0.70;;;6.50;99.90;;;;;;5095725;28;20223;-65
2022/09/07 05:24:28;;;;;;;0.70;0.70;;;6.60;99.90;;;;;;5095458;28;20196;-65
2022/09/07 05:26:53;;;;;;;0.90;0.85;;;6.70;99.90;;;;;;5076845;28;20552;-65
2022/09/07 05:29:19;;;;;;;0.60;0.60;;;6.80;99.90;;;;;;5075053;28;20240;-65
2022/09/07 05:31:46;;;;;;;0.70;0.70;;;6.90;99.90;;;;;;5057429;28;20197;-65
2022/09/07 05:34:14;;;;;;;2.15;1.27;;;7.00;99.90;;;;;;5057129;28;20671;-65
2022/09/07 05:36:40;;;;;;;0.90;0.90;;;7.20;99.90;;;;;;5075002;28;20252;-65
2022/09/07 05:39:07;;;;;;;2.28;1.20;;;7.30;99.90;;;;;;5075191;28;20656;-65
2022/09/07 05:41:33;;;;;;;0.70;0.70;;;7.40;99.90;;;;;;5072342;28;20601;-65
2022/09/07 05:43:59;;;;;;;0.60;0.60;;;7.60;99.90;;;;;;5055180;28;20201;-63
2022/09/07 05:46:25;;;;;;;0.70;0.70;;;7.70;99.90;;;;;;5064331;28;20192;-65
2022/09/07 05:48:50;;;;;;;0.60;0.60;;;7.90;99.90;;;;;;5075033;28;20283;-65
2022/09/07 05:51:16;;;;;;;0.70;0.70;;;8.00;99.90;;;;;;5074900;28;20201;-65
2022/09/07 05:53:44;;;;;;;0.70;0.70;;;8.20;99.90;;;;;;5065286;28;20656;-65
2022/09/07 05:56:11;;;;;;;0.70;0.70;;;8.30;99.90;;;;;;5054833;28;20618;-64
2022/09/07 05:58:37;;;;;;;0.68;0.68;;;8.50;99.90;;;;;;5053472;28;20193;-65
2022/09/07 06:01:09;;;;;;;0.70;0.70;;;8.60;99.90;;;;;;5054789;28;20311;-65
2022/09/07 06:03:36;;;;;;;0.60;0.60;;;8.80;99.90;;;;;;5053401;28;20193;-65
2022/09/07 06:06:04;;;;;;;0.70;0.70;;;9.00;99.90;;;;;;5054822;28;20565;-65
2022/09/07 06:08:31;;;;;;;0.70;0.70;;;9.10;99.90;;;;;;5054666;28;20221;-65
2022/09/07 06:10:57;;;;;;;0.52;0.52;;;9.20;99.90;;;;;;5054702;28;20201;-65
2022/09/07 06:13:23;;;;;;;0.90;0.90;;;9.40;99.90;;;;;;5054435;28;20197;-65
2022/09/07 06:15:49;;;;;;;0.65;0.65;;;9.50;99.90;;;;;;5054661;28;20216;-65
2022/09/07 06:18:15;;;;;;;0.60;0.60;;;9.60;99.90;;;;;;5054597;28;20255;-64
2022/09/07 06:20:40;;;;;;;0.70;0.70;;;9.70;99.90;;;;;;5054266;28;20243;-65
2022/09/07 06:23:06;;;;;;;0.60;0.60;;;9.80;99.90;;;;;;5072546;28;20591;-65
2022/09/07 06:25:32;;;;;;;0.60;0.60;;;9.90;99.90;;;;;;5074311;28;20197;-64
2022/09/07 06:27:58;;;;;;;0.65;0.65;;;10.00;99.90;;;;;;5074324;28;20342;-65
2022/09/07 06:30:24;;;;;;;0.70;0.70;;;10.10;99.90;;;;;;5073630;28;20300;-65
2022/09/07 06:32:50;;;;;;;0.60;0.60;;;10.20;99.90;;;;;;5074289;28;20196;-65
2022/09/07 06:35:16;;;;;;;0.60;0.60;;;10.30;99.90;;;;;;5073982;28;20201;-65
2022/09/07 06:37:42;;;;;;;0.60;0.60;;;10.40;99.90;;;;;;5073957;28;20189;-65
2022/09/07 06:40:10;;;;;;;0.68;0.68;;;10.50;99.90;;;;;;5074069;28;20192;-65
2022/09/07 06:42:36;;;;;;;0.63;0.63;;;10.60;99.90;;;;;;5073636;28;20291;-65
2022/09/07 06:45:03;;;;;;;0.60;0.60;;;10.70;99.90;;;;;;5073945;28;20556;-65
2022/09/07 06:47:28;;;;;;;0.60;0.60;;;10.80;99.90;;;;;;5072906;28;20197;-66
2022/09/07 06:49:54;;;;;;;0.80;0.80;;;10.90;99.90;;;;;;5064461;28;20255;-66
2022/09/07 06:52:20;;;;;;;0.60;0.60;;;11.00;99.90;;;;;;5053736;28;20215;-66
2022/09/07 06:54:45;;;;;;;0.50;0.50;;;11.00;99.90;;;;;;5053830;28;20228;-65
2022/09/07 06:57:11;;;;;;;0.80;0.80;;;11.00;99.90;;;;;;5053645;28;20255;-66
2022/09/07 06:59:37;;;;;;;0.75;0.75;;;11.20;99.90;;;;;;5052277;28;20243;-65
2022/09/07 07:02:04;;;;;;;0.60;0.60;;;11.30;99.90;;;;;;5053530;28;20193;-66
2022/09/07 07:04:30;;;;;;;0.60;0.60;;;11.40;99.90;;;;;;5053354;28;20189;-64
2022/09/07 07:06:55;;;;;;;0.60;0.60;;;11.50;99.90;;;;;;5053584;28;20208;-66
2022/09/07 07:09:21;;;;;;;0.60;0.60;;;11.60;99.90;;;;;;5053316;28;20201;-66
2022/09/07 07:11:47;;;;;;;0.50;0.50;;;11.70;99.90;;;;;;5053475;28;20189;-66
2022/09/07 07:14:16;;;;;;;0.70;0.70;;;11.90;99.90;;;;;;5053486;28;20194;-66
2022/09/07 07:16:42;;;;;;;0.60;0.60;;;12.00;99.90;;;;;;5053154;28;20201;-66
2022/09/07 07:19:09;;;;;;;0.57;0.57;;;12.10;99.90;;;;;;5069797;28;20205;-67
2022/09/07 07:21:35;;;;;;;0.50;0.50;;;12.20;99.90;;;;;;5072975;28;20188;-66
2022/09/07 07:24:01;;;;;;;0.60;0.60;;;12.40;99.90;;;;;;5073226;28;20191;-66
2022/09/07 07:26:26;;;;;;;0.60;0.60;;;12.40;99.90;;;;;;5054941;28;20216;-66
2022/09/07 07:28:54;;;;;;;0.68;0.68;;;12.60;99.90;;;;;;5073047;28;20229;-66
2022/09/07 07:31:23;;;;;;;0.50;0.50;;;12.60;99.90;;;;;;5072814;28;20196;-67
2022/09/07 07:33:52;;;;;;;0.63;0.63;;;12.70;99.90;;;;;;5072838;28;20225;-66
2022/09/07 07:36:22;;;;;;;0.50;0.50;;;12.90;99.90;;;;;;5072916;28;20201;-66
2022/09/07 07:38:50;;;;;;;0.50;0.50;;;13.10;99.90;;;;;;5072834;28;20193;-67
2022/09/07 07:41:18;;;;;;;0.50;0.50;;;13.30;99.90;;;;;;5072509;28;20224;-66
2022/09/07 07:43:44;;;;;;;0.52;0.52;;;13.50;99.90;;;;;;5053024;28;20259;-67
2022/09/07 07:46:14;;;;;;;0.60;0.60;;;13.70;99.90;;;;;;5052686;28;20609;-66
2022/09/07 07:48:40;;;;;;;0.40;0.40;;;13.90;99.90;;;;;;5052968;28;20216;-67
2022/09/07 07:51:12;;;;;;;0.50;0.50;;;13.80;99.90;;;;;;5052704;28;20668;-67
2022/09/07 07:53:38;;;;;;;1.75;0.93;;;13.90;99.90;;;;;;5052611;28;20199;-66
2022/09/07 07:56:05;;;;;;;0.50;0.50;;;14.00;99.90;;;;;;5052658;28;20597;-67
2022/09/07 07:58:33;;;;;;;0.45;0.45;;;14.10;99.90;;;;;;5051297;28;20236;-67
2022/09/07 08:01:09;;;;;;;0.40;0.40;;;14.30;99.90;;;;;;5052650;28;20652;-66
2022/09/07 08:03:37;;;;;;;1.05;0.70;;;14.30;99.90;;;;;;5051362;28;20204;-66
2022/09/07 08:06:12;;;;;;;0.50;0.50;;;14.40;99.90;;;;;;5052758;28;20194;-67
2022/09/07 08:08:38;;;;;;;0.57;0.57;;;14.50;99.90;;;;;;5052594;28;20201;-66
2022/09/07 08:11:08;;;;;;;0.50;0.50;;;14.70;99.90;;;;;;5052745;28;20276;-67
2022/09/07 08:13:35;;;;;;;0.50;0.50;;;14.80;99.90;;;;;;5053719;28;20190;-66
2022/09/07 08:16:01;;;;;;;0.75;0.75;;;14.80;99.90;;;;;;5072582;28;20675;-66
2022/09/07 08:18:27;;;;;;;0.40;0.40;;;14.80;99.90;;;;;;5072510;28;20556;-67
2022/09/07 08:20:58;;;;;;;0.40;0.40;;;15.10;99.90;;;;;;5054606;28;20188;-67
2022/09/07 08:23:23;;;;;;;0.40;0.40;;;15.20;99.90;;;;;;5072145;28;20550;-67
2022/09/07 08:25:53;;;;;;;0.30;0.30;;;15.30;99.90;;;;;;5054596;28;20258;-67
2022/09/07 08:28:22;;;;;;;0.43;0.43;;;15.60;99.90;;;;;;5072160;28;20599;-67
2022/09/07 08:30:48;;;;;;;0.38;0.38;;;15.90;99.90;;;;;;5054422;28;20281;-67
2022/09/07 08:33:14;;;;;;;0.55;0.55;;;16.00;99.90;;;;;;5072431;28;20197;-67
2022/09/07 08:35:40;;;;;;;0.30;0.30;;;16.00;99.90;;;;;;5072031;28;20212;-67
2022/09/07 08:38:06;;;;;;;0.32;0.32;;;16.20;99.90;;;;;;5072474;28;20658;-67
2022/09/07 08:40:35;;;;;;;0.93;0.70;;;16.30;99.90;;;;;;5072163;28;20219;-65
2022/09/07 08:43:32;;;;;;;0.30;0.30;;;16.50;99.90;;;;;;5057225;28;20239;-67
2022/09/07 08:46:05;;;;;;;0.40;0.40;;;16.50;99.90;;;;;;5052432;28;20579;-67
2022/09/07 08:48:34;;;;;;;0.47;0.47;;;16.50;99.90;;;;;;5052150;28;20202;-66
2022/09/07 08:51:04;;;;;;;0.30;0.30;;;16.80;99.90;;;;;;5052351;28;20201;-66
2022/09/07 08:53:30;;;;;;;0.30;0.30;;;17.00;99.90;;;;;;5050709;28;20198;-63
2022/09/07 08:56:11;;;;;;;0.40;0.40;;;17.30;99.90;;;;;;5052101;28;20209;-66
2022/09/07 08:58:53;;;;;;;0.30;0.30;;;17.40;99.90;;;;;;5051894;28;20197;-66
2022/09/07 09:01:36;;;;;;;0.88;0.70;;;17.50;99.90;;;;;;5051881;28;20268;-67
2022/09/07 09:04:03;;;;;;;0.30;0.30;;;17.70;99.90;;;;;;5052241;28;20216;-67
2022/09/07 09:06:38;;;;;;;1.25;0.70;;;17.50;99.90;;;;;;5050558;28;20197;-65
2022/09/07 09:09:24;;;;;;;1.75;0.73;;;17.60;99.90;;;;;;5052115;28;20559;-65
2022/09/07 09:12:20;;;;;;;0.30;0.30;;;17.90;99.90;;;;;;5073668;28;20197;-67
2022/09/07 09:15:04;;;;;;;0.20;0.20;;;18.40;99.90;;;;;;5075838;28;20275;-66
2022/09/07 09:17:34;;;;;;;0.40;0.40;;;18.40;99.90;;;;;;5075439;28;20572;-67
2022/09/07 09:20:36;;;;;;;0.30;0.30;;;18.60;99.90;;;;;;5063759;28;20196;-67
2022/09/07 09:23:11;;;;;;;0.20;0.20;;;18.60;99.90;;;;;;5032377;28;20212;-68
2022/09/07 09:25:41;;;;;;;0.35;0.35;;;18.90;99.90;;;;;;5055665;28;20220;-68
2022/09/07 09:28:11;;;;;;;0.30;0.30;;;19.00;99.90;;;;;;5055469;28;20209;-68
2022/09/07 09:30:37;;;;;;;0.20;0.20;;;19.10;99.90;;;;;;5075058;28;20208;-67
2022/09/07 09:33:19;;;;;;;0.43;0.43;;;19.20;99.90;;;;;;5075283;28;20201;-67
2022/09/07 09:35:50;;;;;;;0.52;0.52;;;19.20;99.90;;;;;;5075024;28;20215;-67
2022/09/07 09:38:38;;;;;;;0.30;0.30;;;19.30;99.90;;;;;;5075142;28;20201;-67
2022/09/07 09:41:14;;;;;;;4.40;1.10;;;19.50;99.90;;;;;;5075226;28;20185;-68
2022/09/07 09:43:43;;;;;;;0.65;0.65;;;19.70;99.90;;;;;;5055086;28;20201;-67
2022/09/07 09:46:27;;;;;;;0.30;0.30;;;19.90;99.90;;;;;;5053818;28;20208;-67
2022/09/07 09:49:14;;;;;;;0.70;0.40;;;20.10;99.90;;;;;;5055027;28;20197;-67
2022/09/07 09:51:43;;;;;;;0.20;0.20;;;20.00;99.90;;;;;;5054117;28;20271;-67
2022/09/07 09:54:25;;;;;;;0.50;0.35;;;19.90;99.90;;;;;;5054879;28;20563;-66
2022/09/07 09:56:52;;;;;;;0.30;0.30;;;20.10;99.90;;;;;;5053619;28;20209;-67
2022/09/07 09:59:17;;;;;;;0.30;0.30;;;20.20;99.90;;;;;;5054918;28;20181;-67
2022/09/07 10:01:48;;;;;;;0.20;0.20;;;20.40;99.90;;;;;;5054667;28;20189;-67
2022/09/07 10:04:22;;;;;;;0.77;0.57;;;20.70;99.90;;;;;;5054818;28;20181;-66
2022/09/07 10:06:52;;;;;;;0.30;0.30;;;20.70;99.90;;;;;;5062332;28;20239;-67
2022/09/07 10:09:21;;;;;;;0.85;0.68;;;20.90;99.90;;;;;;5074579;28;20249;-68
2022/09/07 10:12:19;;;;;;;0.20;0.20;;;21.00;99.90;;;;;;5074847;28;20558;-67
2022/09/07 10:14:46;;;;;;;0.28;0.28;;;20.80;99.90;;;;;;5074591;28;20193;-66
2022/09/07 10:17:22;;;;;;;0.40;0.30;;;20.90;99.90;;;;;;5074256;28;20211;-68
2022/09/07 10:19:48;;;;;;;0.30;0.30;;;20.90;99.90;;;;;;5074551;28;20604;-68
2022/09/07 10:22:35;;;;;;;0.28;0.28;;;21.10;99.90;;;;;;5073694;28;20220;-69
2022/09/07 10:25:23;;;;;;;0.20;0.20;;;21.40;99.90;;;;;;5074562;28;20635;-68
2022/09/07 10:28:12;;;;;;;0.20;0.20;;;21.60;99.90;;;;;;5074344;28;20224;-68
2022/09/07 10:30:54;;;;;;;0.43;0.40;;;22.10;99.90;;;;;;5074413;28;20201;-67
2022/09/07 10:33:51;;;;;;;0.73;0.50;;;22.70;99.90;;;;;;5074196;28;20224;-67
2022/09/07 10:36:29;;;;;;;0.20;0.20;;;22.50;99.90;;;;;;5053503;28;20221;-66
2022/09/07 10:39:05;;;;;;;0.98;0.52;;;22.30;99.90;;;;;;5054435;28;20193;-67
2022/09/07 10:41:54;;;;;;;0.32;0.32;;;22.50;99.90;;;;;;5056117;28;20200;-66
2022/09/07 10:44:54;;;;;;;0.20;0.20;;;23.00;99.90;;;;;;5046654;28;20634;-66
2022/09/07 10:47:47;;;;;;;0.30;0.30;;;23.50;99.90;;;;;;5073373;28;20406;-67
2022/09/07 10:50:40;;;;;;;0.30;0.30;;;24.10;99.90;;;;;;5073702;28;20717;-67
2022/09/07 10:53:27;;;;;;;0.30;0.30;;;24.30;99.90;;;;;;5074053;28;20211;-67
2022/09/07 10:56:11;;;;;;;0.50;0.50;;;23.80;99.90;;;;;;5074126;28;20220;-67
2022/09/07 10:58:57;;;;;;;0.20;0.20;;;23.70;99.90;;;;;;5074046;28;20279;-67
2022/09/07 11:01:37;;;;;;;0.10;0.10;;;23.50;99.90;;;;;;5025351;28;20212;-67
2022/09/07 11:04:16;;;;;;;0.10;0.10;;;23.00;99.90;;;;;;5073904;28;20681;-67
2022/09/07 11:06:48;;;;;;;0.20;0.20;;;23.40;99.90;;;;;;5073715;28;20629;-67
2022/09/07 11:09:42;;;;;;;0.30;0.30;;;23.40;99.90;;;;;;5073989;28;20197;-67
2022/09/07 11:12:23;;;;;;;0.20;0.20;;;23.80;99.90;;;;;;5073801;28;20193;-67
2022/09/07 11:15:14;;;;;;;0.35;0.35;;;23.80;99.90;;;;;;5073978;28;20699;-68
2022/09/07 11:17:47;;;;;;;0.20;0.20;;;24.10;99.90;;;;;;5073595;28;20212;-67
2022/09/07 11:20:36;;;;;;;0.38;0.38;;;23.80;99.90;;;;;;5055846;28;20228;-67
2022/09/07 11:23:22;;;;;;;0.30;0.30;;;23.40;99.90;;;;;;5073634;28;20246;-67
2022/09/07 11:26:06;;;;;;;0.30;0.30;;;23.80;99.90;;;;;;5074009;28;20271;-67
2022/09/07 11:28:45;;;;;;;0.20;0.20;;;23.70;99.90;;;;;;5055373;28;20236;-67
2022/09/07 11:31:26;;;;;;;0.20;0.20;;;24.20;99.90;;;;;;5073414;28;20247;-67
2022/09/07 11:34:11;;;;;;;0.10;0.10;;;24.20;99.90;;;;;;5073605;28;20667;-67
2022/09/07 11:36:45;;;;;;;0.20;0.20;;;23.90;99.90;;;;;;5073238;28;20557;-67
2022/09/07 11:39:17;;;;;;;0.25;0.25;;;23.80;99.90;;;;;;5073425;28;20265;-68
2022/09/07 11:41:54;;;;;;;0.10;0.10;;;23.10;99.90;;;;;;5067858;28;20204;-67
2022/09/07 11:44:56;;;;;;;0.45;0.30;;;23.60;99.90;;;;;;5035660;28;20193;-67
2022/09/07 11:47:36;;;;;;;0.20;0.20;;;23.70;99.90;;;;;;5010643;28;20567;-67
2022/09/07 11:50:02;;;;;;;0.17;0.17;;;24.20;99.90;;;;;;5053147;28;20193;-67
2022/09/07 11:52:35;;;;;;;0.15;0.15;;;24.70;99.90;;;;;;5051440;28;20263;-67
2022/09/07 11:55:10;;;;;;;0.35;0.35;;;24.60;99.90;;;;;;5053242;28;20709;-68
2022/09/07 11:57:45;;;;;;;1.00;0.32;;;24.20;99.90;;;;;;5053138;28;20238;-67
2022/09/07 12:00:19;;;;;;;0.30;0.30;;;23.80;99.90;;;;;;5066643;28;20203;-67
2022/09/07 12:03:00;;;;;;;0.30;0.30;;;23.80;99.90;;;;;;5073084;28;20189;-67
2022/09/07 12:06:04;;;;;;;0.85;0.40;;;23.90;99.90;;;;;;5072667;28;20565;-68
2022/09/07 12:08:50;;;;;;;0.20;0.20;;;24.00;99.90;;;;;;5073019;28;20188;-67
2022/09/07 12:11:45;;;;;;;1.77;0.68;;;24.00;99.90;;;;;;5055032;28;20800;-67
2022/09/07 12:14:36;;;;;;;0.25;0.25;;;24.00;99.90;;;;;;5055053;28;20678;-67
2022/09/07 12:17:24;;;;;;;0.20;0.20;;;24.40;99.90;;;;;;5073114;28;20254;-67
2022/09/07 12:20:12;;;;;;;0.20;0.20;;;24.50;99.90;;;;;;5072941;28;20196;-67
2022/09/07 12:22:58;;;;;;;0.20;0.20;;;24.30;99.90;;;;;;5072745;28;20673;-67
2022/09/07 12:25:25;;;;;;;0.20;0.20;;;23.80;99.90;;;;;;5055827;28;20700;-66
2022/09/07 12:27:51;;;;;;;0.45;0.30;;;23.40;99.90;;;;;;5072836;28;20701;-67
2022/09/07 12:30:17;;;;;;;0.20;0.20;;;23.10;99.90;;;;;;5090726;28;20223;-67
2022/09/07 12:32:45;;;;;;;0.20;0.20;;;23.40;99.90;;;;;;5093395;28;20184;-68
2022/09/07 12:35:32;;;;;;;0.28;0.20;;;23.50;99.90;;;;;;5093031;28;20723;-68
2022/09/07 12:37:59;;;;;;;0.30;0.30;;;23.30;99.90;;;;;;5064548;28;20299;-66
2022/09/07 12:43:12;;;;;;;0.50;0.50;;;22.70;99.90;;;;;;5079145;28;20593;-67
2022/09/07 12:45:38;;;;;;;0.20;0.20;;;22.30;99.90;;;;;;5074782;28;20204;-68
2022/09/07 12:48:15;;;;;;;0.30;0.30;;;22.00;99.90;;;;;;5076875;28;20539;-68
2022/09/07 12:51:02;;;;;;;1.38;0.47;;;21.30;99.90;;;;;;5076514;28;20199;-67
2022/09/07 12:53:39;;;;;;;0.52;0.30;;;20.70;99.90;;;;;;5076355;28;20259;-67
2022/09/07 12:56:42;;;;;;;1.83;0.47;;;20.70;99.90;;;;;;5076502;28;20209;-67
2022/09/07 12:59:13;;;;;;;0.20;0.20;;;21.00;99.90;;;;;;5076447;28;20271;-69
2022/09/07 13:02:01;;;;;;;0.20;0.20;;;20.90;99.90;;;;;;5076205;28;20197;-69
2022/09/07 13:04:54;;;;;;;0.35;0.32;;;21.20;99.90;;;;;;5076006;28;20195;-67
2022/09/07 13:08:00;;;;;;;0.50;0.50;;;21.00;99.90;;;;;;5076313;28;20224;-67
2022/09/07 13:10:35;;;;;;;0.35;0.35;;;20.80;99.90;;;;;;5061184;28;20212;-67
2022/09/07 13:13:20;;;;;;;0.30;0.30;;;20.40;99.90;;;;;;5057859;28;20196;-67
2022/09/07 13:15:47;;;;;;;4.95;0.90;;;20.30;99.90;;;;;;5075982;28;20278;-67
2022/09/07 13:18:27;;;;;;;0.40;0.40;;;20.40;99.90;;;;;;5075546;28;20193;-67
2022/09/07 13:21:09;;;;;;;0.30;0.30;;;20.40;99.90;;;;;;5075507;28;20675;-67
2022/09/07 13:23:36;;;;;;;0.77;0.57;;;20.60;99.90;;;;;;5084147;28;20670;-67
2022/09/07 13:26:05;;;;;;;0.35;0.35;;;20.30;99.90;;;;;;5096017;28;20530;-67